sensor_id;sensor_type;location;lat;lon;timestamp;temperature;humidity
4960;DHT22;2495;48.200;11.532;2022-07-23T00:04:56;28.70;48.60
4960;DHT22;2495;48.200;11.532;2022-07-23T00:09:57;28.60;48.20
4960;DHT22;2495;48.200;11.532;2022-07-23T00:14:59;28.60;48.40
4960;DHT22;2495;48.200;11.532;2022-07-23T00:20:00;28.50;48.50
4960;DHT22;2495;48.200;11.532;2022-07-23T00:25:02;28.50;48.50
4960;DHT22;2495;48.200;11.532;2022-07-23T00:30:04;28.50;48.90
4960;DHT22;2495;48.200;11.532;2022-07-23T00:35:05;28.50;49.40
4960;DHT22;2495;48.200;11.532;2022-07-23T00:40:07;28.40;49.60
4960;DHT22;2495;48.200;11.532;2022-07-23T00:45:09;28.30;49.60
4960;DHT22;2495;48.200;11.532;2022-07-23T00:50:11;28.30;49.90
4960;DHT22;2495;48.200;11.532;2022-07-23T00:55:15;28.50;49.00
4960;DHT22;2495;48.200;11.532;2022-07-23T01:00:14;28.40;49.10
4960;DHT22;2495;48.200;11.532;2022-07-23T01:05:15;28.30;49.60
4960;DHT22;2495;48.200;11.532;2022-07-23T01:10:17;28.30;49.50
4960;DHT22;2495;48.200;11.532;2022-07-23T01:15:34;28.10;50.20
4960;DHT22;2495;48.200;11.532;2022-07-23T01:20:37;28.00;51.00
4960;DHT22;2495;48.200;11.532;2022-07-23T01:25:52;27.90;51.30
4960;DHT22;2495;48.200;11.532;2022-07-23T01:31:11;27.80;50.90
4960;DHT22;2495;48.200;11.532;2022-07-23T01:36:21;27.60;50.40
4960;DHT22;2495;48.200;11.532;2022-07-23T01:41:36;27.00;52.00
4960;DHT22;2495;48.200;11.532;2022-07-23T01:46:47;26.40;54.20
4960;DHT22;2495;48.200;11.532;2022-07-23T01:51:51;25.80;56.20
4960;DHT22;2495;48.200;11.532;2022-07-23T05:18:10;23.10;72.90
4960;DHT22;2495;48.200;11.532;2022-07-23T05:23:41;23.10;72.80
4960;DHT22;2495;48.200;11.532;2022-07-23T05:29:04;23.20;72.90
4960;DHT22;2495;48.200;11.532;2022-07-23T05:34:06;23.20;72.90
4960;DHT22;2495;48.200;11.532;2022-07-23T05:39:10;23.20;72.60
4960;DHT22;2495;48.200;11.532;2022-07-23T05:44:11;23.30;74.20
4960;DHT22;2495;48.200;11.532;2022-07-23T05:49:12;23.70;73.50
4960;DHT22;2495;48.200;11.532;2022-07-23T05:54:14;23.70;72.70
4960;DHT22;2495;48.200;11.532;2022-07-23T05:59:15;23.60;72.90
4960;DHT22;2495;48.200;11.532;2022-07-23T06:04:17;23.50;73.00
4960;DHT22;2495;48.200;11.532;2022-07-23T06:09:18;23.40;73.10
4960;DHT22;2495;48.200;11.532;2022-07-23T06:19:47;23.30;73.90
4960;DHT22;2495;48.200;11.532;2022-07-23T06:24:49;23.40;74.80
4960;DHT22;2495;48.200;11.532;2022-07-23T06:29:50;23.60;73.60
4960;DHT22;2495;48.200;11.532;2022-07-23T06:34:52;23.50;73.50
4960;DHT22;2495;48.200;11.532;2022-07-23T06:40:20;23.50;73.50
4960;DHT22;2495;48.200;11.532;2022-07-23T06:45:31;23.60;73.80
4960;DHT22;2495;48.200;11.532;2022-07-23T06:51:02;23.60;72.70
4960;DHT22;2495;48.200;11.532;2022-07-23T07:02:59;23.90;73.50
4960;DHT22;2495;48.200;11.532;2022-07-23T07:08:10;24.20;72.60
4960;DHT22;2495;48.200;11.532;2022-07-23T09:36:48;27.00;66.50
4960;DHT22;2495;48.200;11.532;2022-07-23T09:42:32;28.80;63.30
4960;DHT22;2495;48.200;11.532;2022-07-23T09:47:34;31.50;58.30
4960;DHT22;2495;48.200;11.532;2022-07-23T09:52:37;33.20;55.10
4960;DHT22;2495;48.200;11.532;2022-07-23T09:57:43;33.60;53.80
4960;DHT22;2495;48.200;11.532;2022-07-23T10:02:46;33.40;53.40
4960;DHT22;2495;48.200;11.532;2022-07-23T10:07:45;33.90;52.60
4960;DHT22;2495;48.200;11.532;2022-07-23T10:12:47;35.10;50.00
4960;DHT22;2495;48.200;11.532;2022-07-23T10:18:03;35.00;50.10
4960;DHT22;2495;48.200;11.532;2022-07-23T10:23:08;33.70;50.80
4960;DHT22;2495;48.200;11.532;2022-07-23T10:28:12;34.50;49.20
4960;DHT22;2495;48.200;11.532;2022-07-23T10:34:02;34.30;47.70
4960;DHT22;2495;48.200;11.532;2022-07-23T10:39:04;35.80;45.50
4960;DHT22;2495;48.200;11.532;2022-07-23T10:44:17;36.40;44.20
4960;DHT22;2495;48.200;11.532;2022-07-23T10:49:24;35.50;44.70
4960;DHT22;2495;48.200;11.532;2022-07-23T10:54:25;34.00;45.80
4960;DHT22;2495;48.200;11.532;2022-07-23T10:59:26;33.00;46.70
4960;DHT22;2495;48.200;11.532;2022-07-23T11:04:47;32.50;47.20
4960;DHT22;2495;48.200;11.532;2022-07-23T11:09:41;32.20;47.20
4960;DHT22;2495;48.200;11.532;2022-07-23T11:14:58;32.10;47.30
4960;DHT22;2495;48.200;11.532;2022-07-23T11:25:09;31.60;47.40
4960;DHT22;2495;48.200;11.532;2022-07-23T11:30:10;31.80;47.00
4960;DHT22;2495;48.200;11.532;2022-07-23T11:35:24;31.40;46.50
4960;DHT22;2495;48.200;11.532;2022-07-23T11:40:24;31.10;47.40
4960;DHT22;2495;48.200;11.532;2022-07-23T11:45:48;30.80;48.30
4960;DHT22;2495;48.200;11.532;2022-07-23T11:50:42;30.90;48.70
4960;DHT22;2495;48.200;11.532;2022-07-23T11:55:43;30.90;48.00
4960;DHT22;2495;48.200;11.532;2022-07-23T12:00:45;30.70;48.10
4960;DHT22;2495;48.200;11.532;2022-07-23T12:05:46;30.40;48.10
4960;DHT22;2495;48.200;11.532;2022-07-23T12:10:47;30.30;48.60
4960;DHT22;2495;48.200;11.532;2022-07-23T12:15:52;30.10;48.90
4960;DHT22;2495;48.200;11.532;2022-07-23T12:20:56;30.00;49.50
4960;DHT22;2495;48.200;11.532;2022-07-23T12:26:03;29.80;49.60
4960;DHT22;2495;48.200;11.532;2022-07-23T12:31:04;29.80;49.60
4960;DHT22;2495;48.200;11.532;2022-07-23T12:36:06;29.70;49.50
4960;DHT22;2495;48.200;11.532;2022-07-23T12:41:07;29.60;49.70
4960;DHT22;2495;48.200;11.532;2022-07-23T12:51:26;29.60;49.80
4960;DHT22;2495;48.200;11.532;2022-07-23T12:56:27;29.50;50.10
4960;DHT22;2495;48.200;11.532;2022-07-23T13:01:28;29.30;50.20
4960;DHT22;2495;48.200;11.532;2022-07-23T13:06:29;29.30;50.30
4960;DHT22;2495;48.200;11.532;2022-07-23T13:11:30;29.30;50.30
4960;DHT22;2495;48.200;11.532;2022-07-23T13:16:31;29.30;50.50
4960;DHT22;2495;48.200;11.532;2022-07-23T13:21:33;29.30;50.70
4960;DHT22;2495;48.200;11.532;2022-07-23T13:26:34;29.30;50.80
4960;DHT22;2495;48.200;11.532;2022-07-23T13:31:35;29.20;51.10
4960;DHT22;2495;48.200;11.532;2022-07-23T13:36:36;29.00;51.20
4960;DHT22;2495;48.200;11.532;2022-07-23T13:41:38;29.00;51.40
4960;DHT22;2495;48.200;11.532;2022-07-23T13:46:39;29.20;52.20
4960;DHT22;2495;48.200;11.532;2022-07-23T13:51:40;29.50;51.60
4960;DHT22;2495;48.200;11.532;2022-07-23T13:56:42;29.80;51.30
4960;DHT22;2495;48.200;11.532;2022-07-23T14:01:43;29.80;51.30
4960;DHT22;2495;48.200;11.532;2022-07-23T14:06:44;29.70;51.40
4960;DHT22;2495;48.200;11.532;2022-07-23T14:11:45;29.40;51.70
4960;DHT22;2495;48.200;11.532;2022-07-23T14:16:47;29.10;52.10
4960;DHT22;2495;48.200;11.532;2022-07-23T14:21:48;28.80;52.40
4960;DHT22;2495;48.200;11.532;2022-07-23T14:26:49;28.70;52.70
4960;DHT22;2495;48.200;11.532;2022-07-23T14:31:50;28.70;52.80
4960;DHT22;2495;48.200;11.532;2022-07-23T14:36:52;28.80;52.90
4960;DHT22;2495;48.200;11.532;2022-07-23T14:41:53;29.10;52.50
4960;DHT22;2495;48.200;11.532;2022-07-23T14:46:54;29.20;52.30
4960;DHT22;2495;48.200;11.532;2022-07-23T14:51:56;29.30;52.20
4960;DHT22;2495;48.200;11.532;2022-07-23T14:56:58;29.30;52.20
4960;DHT22;2495;48.200;11.532;2022-07-23T15:01:58;29.30;52.20
4960;DHT22;2495;48.200;11.532;2022-07-23T15:06:59;29.30;52.20
4960;DHT22;2495;48.200;11.532;2022-07-23T15:12:01;29.20;52.10
4960;DHT22;2495;48.200;11.532;2022-07-23T15:17:02;29.10;52.20
4960;DHT22;2495;48.200;11.532;2022-07-23T15:22:03;29.30;52.10
4960;DHT22;2495;48.200;11.532;2022-07-23T15:27:05;29.40;52.00
4960;DHT22;2495;48.200;11.532;2022-07-23T15:32:06;29.60;52.60
4960;DHT22;2495;48.200;11.532;2022-07-23T15:37:07;29.90;51.90
4960;DHT22;2495;48.200;11.532;2022-07-23T15:42:08;30.30;51.90
4960;DHT22;2495;48.200;11.532;2022-07-23T15:47:14;30.80;51.60
4960;DHT22;2495;48.200;11.532;2022-07-23T15:52:14;31.30;51.20
4960;DHT22;2495;48.200;11.532;2022-07-23T15:57:15;31.60;50.80
4960;DHT22;2495;48.200;11.532;2022-07-23T16:02:16;31.50;50.20
4960;DHT22;2495;48.200;11.532;2022-07-23T16:07:18;31.10;50.20
4960;DHT22;2495;48.200;11.532;2022-07-23T16:12:19;30.50;50.50
4960;DHT22;2495;48.200;11.532;2022-07-23T16:17:20;30.00;50.80
4960;DHT22;2495;48.200;11.532;2022-07-23T16:22:21;29.50;51.70
4960;DHT22;2495;48.200;11.532;2022-07-23T16:27:23;29.30;52.10
4960;DHT22;2495;48.200;11.532;2022-07-23T16:32:24;29.10;52.20
4960;DHT22;2495;48.200;11.532;2022-07-23T16:37:25;29.00;52.60
4960;DHT22;2495;48.200;11.532;2022-07-23T16:42:26;29.10;53.20
4960;DHT22;2495;48.200;11.532;2022-07-23T16:47:28;29.40;52.80
4960;DHT22;2495;48.200;11.532;2022-07-23T16:52:29;29.40;52.60
4960;DHT22;2495;48.200;11.532;2022-07-23T16:57:30;29.40;52.60
4960;DHT22;2495;48.200;11.532;2022-07-23T17:02:32;29.50;53.40
4960;DHT22;2495;48.200;11.532;2022-07-23T17:07:34;29.60;53.20
4960;DHT22;2495;48.200;11.532;2022-07-23T17:12:34;29.40;53.30
4960;DHT22;2495;48.200;11.532;2022-07-23T17:17:35;29.30;54.10
4960;DHT22;2495;48.200;11.532;2022-07-23T17:22:37;29.40;53.60
4960;DHT22;2495;48.200;11.532;2022-07-23T17:27:39;29.30;53.70
4960;DHT22;2495;48.200;11.532;2022-07-23T17:32:40;29.20;54.00
4960;DHT22;2495;48.200;11.532;2022-07-23T17:37:41;29.10;54.20
4960;DHT22;2495;48.200;11.532;2022-07-23T17:42:42;29.00;54.40
4960;DHT22;2495;48.200;11.532;2022-07-23T17:47:44;28.80;54.50
4960;DHT22;2495;48.200;11.532;2022-07-23T17:52:51;28.80;54.70
4960;DHT22;2495;48.200;11.532;2022-07-23T17:57:52;28.70;55.30
4960;DHT22;2495;48.200;11.532;2022-07-23T18:02:53;28.60;55.30
4960;DHT22;2495;48.200;11.532;2022-07-23T18:07:54;28.50;55.30
4960;DHT22;2495;48.200;11.532;2022-07-23T18:12:56;28.40;55.50
4960;DHT22;2495;48.200;11.532;2022-07-23T18:17:57;28.30;55.60
4960;DHT22;2495;48.200;11.532;2022-07-23T18:22:58;28.30;55.80
4960;DHT22;2495;48.200;11.532;2022-07-23T18:27:59;28.30;56.00
4960;DHT22;2495;48.200;11.532;2022-07-23T18:33:01;28.30;56.10
4960;DHT22;2495;48.200;11.532;2022-07-23T18:38:02;28.30;56.30
4960;DHT22;2495;48.200;11.532;2022-07-23T18:43:03;28.20;56.50
4960;DHT22;2495;48.200;11.532;2022-07-23T18:48:05;28.10;56.80
4960;DHT22;2495;48.200;11.532;2022-07-23T18:53:06;28.10;57.10
4960;DHT22;2495;48.200;11.532;2022-07-23T18:58:07;28.00;57.20
4960;DHT22;2495;48.200;11.532;2022-07-23T19:03:08;28.00;57.40
4960;DHT22;2495;48.200;11.532;2022-07-23T19:08:10;27.90;57.70
4960;DHT22;2495;48.200;11.532;2022-07-23T19:13:11;27.80;57.80
4960;DHT22;2495;48.200;11.532;2022-07-23T19:18:12;27.70;58.00
4960;DHT22;2495;48.200;11.532;2022-07-23T19:23:14;27.70;58.50
4960;DHT22;2495;48.200;11.532;2022-07-23T19:28:15;27.60;58.40
4960;DHT22;2495;48.200;11.532;2022-07-23T19:33:16;27.50;58.70
4960;DHT22;2495;48.200;11.532;2022-07-23T19:38:17;27.50;59.00
4960;DHT22;2495;48.200;11.532;2022-07-23T19:43:19;27.40;59.00
4960;DHT22;2495;48.200;11.532;2022-07-23T19:48:20;27.30;59.10
4960;DHT22;2495;48.200;11.532;2022-07-23T19:53:22;27.30;59.30
4960;DHT22;2495;48.200;11.532;2022-07-23T19:58:23;27.30;59.30
4960;DHT22;2495;48.200;11.532;2022-07-23T20:03:24;27.20;59.00
4960;DHT22;2495;48.200;11.532;2022-07-23T20:08:26;27.20;58.90
4960;DHT22;2495;48.200;11.532;2022-07-23T20:13:27;27.20;58.80
4960;DHT22;2495;48.200;11.532;2022-07-23T20:18:31;27.20;58.60
4960;DHT22;2495;48.200;11.532;2022-07-23T20:23:33;27.20;58.60
4960;DHT22;2495;48.200;11.532;2022-07-23T20:28:34;27.20;58.80
4960;DHT22;2495;48.200;11.532;2022-07-23T20:33:35;27.20;58.70
4960;DHT22;2495;48.200;11.532;2022-07-23T20:38:37;27.20;58.60
4960;DHT22;2495;48.200;11.532;2022-07-23T20:43:38;27.10;58.70
4960;DHT22;2495;48.200;11.532;2022-07-23T20:48:39;27.10;58.50
4960;DHT22;2495;48.200;11.532;2022-07-23T20:53:41;27.10;58.60
4960;DHT22;2495;48.200;11.532;2022-07-23T20:58:42;27.20;59.20
4960;DHT22;2495;48.200;11.532;2022-07-23T21:03:44;27.30;58.70
4960;DHT22;2495;48.200;11.532;2022-07-23T21:08:45;27.20;58.40
4960;DHT22;2495;48.200;11.532;2022-07-23T21:13:46;27.10;58.40
4960;DHT22;2495;48.200;11.532;2022-07-23T21:18:48;27.10;58.50
4960;DHT22;2495;48.200;11.532;2022-07-23T21:23:49;27.00;58.60
4960;DHT22;2495;48.200;11.532;2022-07-23T21:28:50;26.90;58.50
4960;DHT22;2495;48.200;11.532;2022-07-23T21:33:52;26.90;59.30
4960;DHT22;2495;48.200;11.532;2022-07-23T21:38:53;26.80;58.90
4960;DHT22;2495;48.200;11.532;2022-07-23T21:43:57;26.80;59.00
4960;DHT22;2495;48.200;11.532;2022-07-23T21:48:58;26.80;59.30
4960;DHT22;2495;48.200;11.532;2022-07-23T21:54:00;26.70;59.30
4960;DHT22;2495;48.200;11.532;2022-07-23T21:59:01;26.60;59.40
4960;DHT22;2495;48.200;11.532;2022-07-23T22:04:02;26.60;59.70
4960;DHT22;2495;48.200;11.532;2022-07-23T22:09:03;26.50;59.80
4960;DHT22;2495;48.200;11.532;2022-07-23T22:14:04;26.60;60.70
4960;DHT22;2495;48.200;11.532;2022-07-23T22:19:06;26.80;60.90
4960;DHT22;2495;48.200;11.532;2022-07-23T22:24:07;27.00;60.80
4960;DHT22;2495;48.200;11.532;2022-07-23T22:29:09;27.00;60.00
4960;DHT22;2495;48.200;11.532;2022-07-23T22:34:10;26.90;59.90
4960;DHT22;2495;48.200;11.532;2022-07-23T22:39:11;26.70;60.00
4960;DHT22;2495;48.200;11.532;2022-07-23T22:44:12;26.50;60.30
4960;DHT22;2495;48.200;11.532;2022-07-23T22:49:13;26.40;60.60
4960;DHT22;2495;48.200;11.532;2022-07-23T22:54:15;26.30;60.80
4960;DHT22;2495;48.200;11.532;2022-07-23T22:59:16;26.20;61.00
4960;DHT22;2495;48.200;11.532;2022-07-23T23:04:17;26.10;61.30
4960;DHT22;2495;48.200;11.532;2022-07-23T23:09:18;26.10;61.60
4960;DHT22;2495;48.200;11.532;2022-07-23T23:14:20;26.00;61.90
4960;DHT22;2495;48.200;11.532;2022-07-23T23:19:21;26.00;62.10
4960;DHT22;2495;48.200;11.532;2022-07-23T23:24:22;25.90;62.20
4960;DHT22;2495;48.200;11.532;2022-07-23T23:29:23;25.90;62.20
4960;DHT22;2495;48.200;11.532;2022-07-23T23:34:25;25.90;62.50
4960;DHT22;2495;48.200;11.532;2022-07-23T23:39:26;25.90;62.70
4960;DHT22;2495;48.200;11.532;2022-07-23T23:44:27;25.80;62.80
4960;DHT22;2495;48.200;11.532;2022-07-23T23:49:28;25.80;62.90
4960;DHT22;2495;48.200;11.532;2022-07-23T23:54:30;25.80;63.00
4960;DHT22;2495;48.200;11.532;2022-07-23T23:59:31;25.80;63.20
